Time;durP1;ratioP1;P1;durP2;ratioP2;P2;SDS_P1;SDS_P2;PMS_P1;PMS_P2;Temp;Humidity;BMP_temperature;BMP_pressure;BME280_temperature;BME280_humidity;BME280_pressure;Samples;Min_cycle;Max_cycle;Signal;HPM_P1;HPM_P2
2023/07/07 00:01:58;;;;;;;17.55;6.32;;;;;;;13.40;100.00;101745.47;5012822;28;20038;-61
2023/07/07 00:04:23;;;;;;;17.15;6.40;;;;;;;13.38;100.00;101747.19;5012640;28;20042;-62
2023/07/07 00:06:49;;;;;;;18.38;6.57;;;;;;;13.34;100.00;101741.00;5012883;28;20026;-62
2023/07/07 00:09:16;;;;;;;18.35;6.95;;;;;;;13.17;100.00;101748.78;5012741;28;20362;-65
2023/07/07 00:11:41;;;;;;;19.83;7.30;;;;;;;13.06;100.00;101740.75;5012768;28;20034;-65
2023/07/07 00:14:08;;;;;;;19.85;7.55;;;;;;;13.03;100.00;101740.72;5012807;28;20041;-62
2023/07/07 00:16:37;;;;;;;18.45;7.13;;;;;;;13.02;100.00;101746.91;5012670;28;20389;-64
2023/07/07 00:19:03;;;;;;;18.83;7.57;;;;;;;13.07;100.00;101753.13;5012913;28;20045;-62
2023/07/07 00:21:28;;;;;;;19.02;7.30;;;;;;;13.14;100.00;101748.78;5012824;28;20029;-63
2023/07/07 00:23:55;;;;;;;18.88;7.57;;;;;;;13.07;100.00;101746.94;5012538;28;20088;-62
2023/07/07 00:26:23;;;;;;;19.45;7.68;;;;;;;13.03;100.00;101747.78;5014075;28;20135;-63
2023/07/07 00:28:49;;;;;;;18.30;7.50;;;;;;;12.96;100.00;101745.94;5016607;28;20034;-61
2023/07/07 00:31:15;;;;;;;18.17;7.30;;;;;;;12.81;100.00;101750.25;5016427;28;20041;-63
2023/07/07 00:33:41;;;;;;;18.45;7.25;;;;;;;12.75;100.00;101742.22;5016621;28;20053;-66
2023/07/07 00:36:06;;;;;;;18.58;7.28;;;;;;;12.65;100.00;101743.88;5016671;28;20026;-61
2023/07/07 00:38:31;;;;;;;18.80;7.07;;;;;;;12.65;100.00;101748.31;5016209;28;20053;-65
2023/07/07 00:41:03;;;;;;;18.27;7.22;;;;;;;12.76;100.00;101745.78;5016246;28;20113;-61
2023/07/07 00:43:29;;;;;;;18.42;7.10;;;;;;;12.72;100.00;101750.16;5016441;28;20034;-62
2023/07/07 00:45:56;;;;;;;18.70;7.30;;;;;;;12.74;100.00;101751.06;5016252;28;20453;-62
2023/07/07 00:48:29;;;;;;;17.98;7.00;;;;;;;12.74;100.00;101748.41;5016061;28;20065;-62
2023/07/07 00:51:00;;;;;;;18.67;7.07;;;;;;;12.75;100.00;101744.88;5016238;28;20105;-62
2023/07/07 00:53:26;;;;;;;19.58;7.00;;;;;;;12.77;100.00;101744.91;5016167;28;20427;-62
2023/07/07 00:55:57;;;;;;;19.23;7.35;;;;;;;12.73;100.00;101738.69;5015717;28;20113;-63
2023/07/07 00:58:26;;;;;;;18.67;7.05;;;;;;;12.80;100.00;101748.47;5015873;28;20489;-62
2023/07/07 01:00:59;;;;;;;20.48;7.32;;;;;;;12.73;100.00;101746.66;5016054;28;20052;-63
2023/07/07 01:03:31;;;;;;;18.63;6.95;;;;;;;12.74;100.00;101753.69;5015786;28;20034;-61
2023/07/07 01:05:59;;;;;;;19.30;7.07;;;;;;;12.70;100.00;101762.53;5015986;28;20025;-62
2023/07/07 01:08:24;;;;;;;18.95;7.38;;;;;;;12.61;100.00;101760.69;5015936;28;20091;-62
2023/07/07 01:10:50;;;;;;;20.02;7.80;;;;;;;12.56;100.00;101751.75;5015656;28;20026;-61
2023/07/07 01:13:16;;;;;;;18.55;7.72;;;;;;;12.53;100.00;101754.38;5015810;28;20030;-63
2023/07/07 01:15:53;;;;;;;18.63;7.07;;;;;;;12.51;100.00;101762.34;5015655;28;20029;-62
2023/07/07 01:18:38;;;;;;;19.48;7.40;;;;;;;12.52;100.00;101760.56;5015768;28;20030;-65
2023/07/07 01:21:15;;;;;;;20.27;7.50;;;;;;;12.57;100.00;101766.81;5011781;28;20034;-68
2023/07/07 01:23:46;;;;;;;18.30;7.20;;;;;;;12.51;100.00;101759.69;5015502;28;20509;-67
2023/07/07 01:26:22;;;;;;;18.30;7.32;;;;;;;12.51;100.00;101762.34;5015268;28;20047;-66
2023/07/07 01:29:06;;;;;;;18.65;7.40;;;;;;;12.51;100.00;101761.44;5015429;28;20473;-68
2023/07/07 01:31:57;;;;;;;18.92;7.80;;;;;;;12.50;100.00;101754.38;5015616;28;20072;-68
2023/07/07 01:34:24;;;;;;;18.70;7.57;;;;;;;12.37;100.00;101754.22;4993116;28;20069;-68
2023/07/07 01:36:49;;;;;;;18.33;7.43;;;;;;;12.34;100.00;101751.53;5015332;28;20029;-67
2023/07/07 01:39:15;;;;;;;18.83;7.40;;;;;;;12.32;100.00;101755.03;5014724;28;20026;-67
2023/07/07 01:41:56;;;;;;;18.30;7.55;;;;;;;12.20;100.00;101751.38;5015024;28;20547;-67
2023/07/07 01:44:34;;;;;;;18.77;7.40;;;;;;;12.16;100.00;101754.88;5015073;28;20420;-68
2023/07/07 01:47:18;;;;;;;20.00;7.75;;;;;;;12.18;100.00;101763.72;5015039;28;20030;-67
2023/07/07 01:49:46;;;;;;;18.42;7.45;;;;;;;12.10;100.00;101754.78;5012202;28;20041;-65
2023/07/07 01:52:18;;;;;;;19.05;7.18;;;;;;;12.15;100.00;101758.38;5015007;28;20021;-68
2023/07/07 01:54:49;;;;;;;18.25;7.47;;;;;;;12.04;100.00;101744.09;5014846;28;20033;-68
2023/07/07 01:57:17;;;;;;;19.75;7.95;;;;;;;11.99;100.00;101748.47;5014687;28;20068;-69
2023/07/07 01:59:43;;;;;;;18.65;7.40;;;;;;;11.96;100.00;101746.66;5014968;28;20385;-64
2023/07/07 02:02:09;;;;;;;19.67;8.25;;;;;;;11.93;100.00;101748.34;5014730;28;20431;-61
2023/07/07 02:04:34;;;;;;;19.27;7.82;;;;;;;11.86;100.00;101750.03;5010597;28;20112;-67
2023/07/07 02:07:00;;;;;;;18.98;7.95;;;;;;;11.80;100.00;101752.59;5014831;28;20022;-68
2023/07/07 02:09:26;;;;;;;19.17;7.65;;;;;;;11.71;100.00;101749.78;5014639;28;20034;-65
2023/07/07 02:11:52;;;;;;;19.98;8.07;;;;;;;11.74;100.00;101750.75;5014536;28;20029;-62
2023/07/07 02:14:17;;;;;;;20.70;8.23;;;;;;;11.77;100.00;101747.25;5014636;28;20053;-61
2023/07/07 02:16:43;;;;;;;18.85;8.15;;;;;;;11.84;100.00;101747.34;5014455;28;20030;-64
2023/07/07 02:19:08;;;;;;;19.30;7.95;;;;;;;11.76;100.00;101742.81;5014665;28;20092;-66
2023/07/07 02:21:33;;;;;;;19.10;7.85;;;;;;;11.68;100.00;101748.03;5014776;28;20457;-66
2023/07/07 02:23:59;;;;;;;18.60;7.68;;;;;;;11.70;100.00;101743.63;5014291;28;20125;-61
2023/07/07 02:26:24;;;;;;;18.50;7.65;;;;;;;11.70;100.00;101743.63;5014078;28;20042;-66
2023/07/07 02:28:50;;;;;;;18.67;7.85;;;;;;;11.65;100.00;101748.84;5014400;28;20026;-65
2023/07/07 02:31:15;;;;;;;18.80;7.90;;;;;;;11.62;100.00;101748.81;5014098;28;20038;-61
2023/07/07 02:33:41;;;;;;;19.10;7.78;;;;;;;11.55;100.00;101749.59;5014339;28;20033;-63
2023/07/07 02:36:08;;;;;;;18.40;7.25;;;;;;;11.51;100.00;101751.28;5014046;28;20117;-65
2023/07/07 02:38:35;;;;;;;20.13;8.32;;;;;;;11.50;100.00;101752.19;5014259;28;20046;-65
2023/07/07 02:41:00;;;;;;;19.80;8.15;;;;;;;11.43;100.00;101747.66;5014110;28;20030;-66
2023/07/07 02:43:26;;;;;;;19.45;8.65;;;;;;;11.42;100.00;101743.22;5013899;28;20040;-66
2023/07/07 02:45:51;;;;;;;19.60;8.27;;;;;;;11.38;100.00;101751.97;5013903;28;20109;-65
2023/07/07 02:48:21;;;;;;;19.50;8.20;;;;;;;11.37;100.00;101747.53;5014265;28;20161;-64
2023/07/07 02:51:04;;;;;;;19.67;8.07;;;;;;;11.33;100.00;101751.03;5013852;28;20026;-62
2023/07/07 02:53:32;;;;;;;20.65;9.63;;;;;;;11.26;100.00;101746.50;5013740;28;20054;-66
2023/07/07 02:55:58;;;;;;;21.15;10.10;;;;;;;11.27;100.00;101748.25;5013602;28;20104;-69
2023/07/07 02:58:24;;;;;;;20.25;9.60;;;;;;;11.28;100.00;101750.06;5014124;28;20072;-69
2023/07/07 03:00:50;;;;;;;20.55;9.82;;;;;;;11.18;100.00;101761.34;5013565;28;20045;-69
2023/07/07 03:03:16;;;;;;;20.08;8.80;;;;;;;11.11;100.00;101761.28;4996035;28;20120;-69
2023/07/07 03:05:42;;;;;;;20.13;9.20;;;;;;;11.15;100.00;101775.44;5013875;28;20121;-69
2023/07/07 03:08:08;;;;;;;21.50;10.00;;;;;;;11.19;100.00;101766.69;5013588;28;20030;-69
2023/07/07 03:10:35;;;;;;;20.45;9.60;;;;;;;11.14;100.00;101771.91;5013433;28;20481;-69
2023/07/07 03:13:00;;;;;;;21.33;9.43;;;;;;;11.15;100.00;101764.84;5013625;28;20029;-68
2023/07/07 03:15:38;;;;;;;20.90;10.38;;;;;;;11.05;100.00;101773.50;5013320;28;20366;-69
2023/07/07 03:18:07;;;;;;;23.52;11.00;;;;;;;10.97;100.00;101770.72;4996972;28;20032;-69
2023/07/07 03:20:33;;;;;;;22.85;11.07;;;;;;;10.97;100.00;101773.38;5013329;28;20084;-69
2023/07/07 03:22:58;;;;;;;22.33;10.55;;;;;;;11.03;100.00;101765.53;5013499;28;20034;-69
2023/07/07 03:25:28;;;;;;;21.33;10.27;;;;;;;11.06;100.00;101773.50;4995777;28;20022;-69
2023/07/07 03:27:53;;;;;;;22.50;11.70;;;;;;;11.05;100.00;101774.38;5012965;28;20054;-69
2023/07/07 03:30:18;;;;;;;23.35;12.77;;;;;;;10.95;100.00;101768.06;5013289;28;20104;-68
2023/07/07 03:32:44;;;;;;;24.00;11.98;;;;;;;10.89;100.00;101764.38;5013155;28;20018;-69
2023/07/07 03:35:09;;;;;;;24.08;11.98;;;;;;;10.88;100.00;101765.25;5013086;28;20477;-69
2023/07/07 03:37:36;;;;;;;21.60;11.23;;;;;;;10.90;100.00;101768.84;5013271;28;20026;-69
2023/07/07 03:40:02;;;;;;;22.35;11.45;;;;;;;10.89;100.00;101772.34;5012987;28;20029;-68
2023/07/07 03:42:29;;;;;;;23.52;11.88;;;;;;;10.82;100.00;101777.53;5013225;28;20029;-66
2023/07/07 03:44:54;;;;;;;22.40;11.65;;;;;;;10.87;100.00;101771.44;5013235;28;20030;-66
2023/07/07 03:47:20;;;;;;;22.80;11.73;;;;;;;10.82;100.00;101779.28;5012986;28;20072;-67
2023/07/07 03:49:46;;;;;;;22.45;11.65;;;;;;;10.84;100.00;101781.94;5013200;28;20026;-68
2023/07/07 03:52:12;;;;;;;21.90;10.73;;;;;;;10.85;100.00;101781.06;5012879;28;20040;-68
2023/07/07 03:54:40;;;;;;;22.05;10.48;;;;;;;10.83;100.00;101773.09;5013093;28;20026;-68
2023/07/07 03:57:05;;;;;;;21.33;10.02;;;;;;;10.80;100.00;101778.34;5012966;28;20488;-68
2023/07/07 03:59:30;;;;;;;21.60;10.55;;;;;;;10.82;100.00;101774.00;5012836;28;20041;-68
2023/07/07 04:01:56;;;;;;;20.67;10.07;;;;;;;10.84;100.00;101761.66;5017969;28;20076;-68
2023/07/07 04:04:21;;;;;;;22.10;10.85;;;;;;;10.88;100.00;101774.09;5019490;28;20534;-67
2023/07/07 04:06:46;;;;;;;21.75;10.85;;;;;;;10.85;100.00;101766.09;5019369;28;20457;-69
2023/07/07 04:09:12;;;;;;;21.23;10.50;;;;;;;10.82;100.00;101772.22;5019261;28;20063;-68
2023/07/07 04:11:37;;;;;;;21.50;10.55;;;;;;;10.91;100.00;101771.50;5019450;28;20030;-67
2023/07/07 04:14:02;;;;;;;22.42;10.00;;;;;;;10.94;100.00;101770.66;5019206;28;20109;-68
2023/07/07 04:16:28;;;;;;;21.45;10.63;;;;;;;10.98;100.00;101775.16;5019074;28;20068;-64
2023/07/07 04:18:55;;;;;;;21.13;10.18;;;;;;;10.99;100.00;101783.13;5019419;28;20072;-69
2023/07/07 04:21:23;;;;;;;22.77;10.48;;;;;;;10.97;100.00;101783.94;5019196;28;20186;-68
2023/07/07 04:23:51;;;;;;;21.20;10.63;;;;;;;10.96;100.00;101787.44;5001528;28;20108;-65
2023/07/07 04:26:17;;;;;;;22.42;10.30;;;;;;;11.11;100.00;101795.66;5019115;28;20049;-66
2023/07/07 04:28:43;;;;;;;21.63;10.30;;;;;;;11.18;100.00;101793.13;5019126;28;20474;-65
2023/07/07 04:31:10;;;;;;;21.42;10.55;;;;;;;11.16;100.00;101793.97;5019398;28;20034;-64
2023/07/07 04:33:36;;;;;;;22.75;10.60;;;;;;;11.23;100.00;101788.81;5019884;28;20025;-61
2023/07/07 04:36:05;;;;;;;21.70;10.55;;;;;;;11.31;100.00;101797.75;5019012;28;20072;-62
2023/07/07 04:38:31;;;;;;;21.77;10.60;;;;;;;11.42;100.00;101795.28;5019041;28;20025;-64
2023/07/07 04:41:13;;;;;;;20.95;10.13;;;;;;;11.45;100.00;101790.91;5019216;28;20088;-63
2023/07/07 04:43:46;;;;;;;21.10;10.30;;;;;;;11.51;100.00;101798.06;5015543;28;20030;-62
2023/07/07 04:46:16;;;;;;;22.38;10.57;;;;;;;11.59;100.00;101788.50;5015556;28;20041;-63
2023/07/07 04:48:42;;;;;;;22.00;10.38;;;;;;;11.69;100.00;101789.50;5018934;28;20033;-62
2023/07/07 04:51:09;;;;;;;21.27;10.68;;;;;;;11.78;100.00;101787.00;5019145;28;20022;-63
2023/07/07 04:53:36;;;;;;;21.08;10.18;;;;;;;11.82;100.00;101786.19;5019145;28;20026;-62
2023/07/07 04:56:06;;;;;;;20.75;10.32;;;;;;;11.86;100.00;101774.75;5018716;28;20042;-64
2023/07/07 04:58:33;;;;;;;21.95;11.02;;;;;;;11.96;100.00;101783.75;5019063;28;20034;-66
2023/07/07 05:01:04;;;;;;;22.80;11.15;;;;;;;12.07;100.00;101791.81;5019287;28;20385;-65
2023/07/07 05:03:30;;;;;;;23.20;10.50;;;;;;;12.13;100.00;101789.28;5018746;28;20026;-63
2023/07/07 05:05:56;;;;;;;21.80;10.80;;;;;;;12.16;100.00;101785.78;5018922;28;20087;-63
2023/07/07 05:08:21;;;;;;;22.40;10.10;;;;;;;12.27;100.00;101785.91;5018985;28;20109;-63
2023/07/07 05:10:48;;;;;;;23.20;10.00;;;;;;;12.36;100.00;101788.66;5018763;28;20125;-62
2023/07/07 05:13:13;;;;;;;21.88;9.95;;;;;;;12.47;100.00;101791.47;5015238;28;20034;-65
2023/07/07 05:15:38;;;;;;;21.10;9.63;;;;;;;12.53;100.00;101795.06;5015750;28;20044;-69
2023/07/07 05:18:04;;;;;;;22.00;9.70;;;;;;;12.63;100.00;101801.34;5015525;28;20072;-69
2023/07/07 05:20:29;;;;;;;21.92;9.43;;;;;;;12.76;100.00;101789.13;5015701;28;20028;-69
2023/07/07 05:22:54;;;;;;;22.58;9.70;;;;;;;12.89;100.00;101783.06;5015455;28;20030;-69
2023/07/07 05:25:20;;;;;;;21.30;9.10;;;;;;;13.05;100.00;101785.88;4991488;28;20041;-68
2023/07/07 05:27:45;;;;;;;22.35;9.48;;;;;;;13.16;100.00;101789.47;5003973;28;20051;-67
2023/07/07 05:30:10;;;;;;;21.77;9.82;;;;;;;13.25;100.00;101793.97;5010342;28;20053;-69
2023/07/07 05:32:36;;;;;;;21.38;9.50;;;;;;;13.33;100.00;101792.28;5015252;28;20114;-69
2023/07/07 05:35:01;;;;;;;21.33;9.45;;;;;;;13.43;100.00;101790.63;4997809;28;20029;-69
2023/07/07 05:37:27;;;;;;;22.48;9.50;;;;;;;13.52;100.00;101792.47;5015029;28;20503;-68
2023/07/07 05:39:52;;;;;;;20.95;9.45;;;;;;;13.58;100.00;101792.50;5015070;28;20477;-69
2023/07/07 05:42:17;;;;;;;20.98;9.48;;;;;;;13.69;100.00;101797.88;5014863;28;20033;-68
2023/07/07 05:44:43;;;;;;;20.27;8.98;;;;;;;13.76;100.00;101792.63;5015013;28;20022;-70
2023/07/07 05:47:08;;;;;;;21.23;9.38;;;;;;;13.83;100.00;101793.53;5014635;28;20041;-69
2023/07/07 05:49:33;;;;;;;21.20;9.48;;;;;;;13.94;100.00;101802.47;5015003;28;20026;-70
2023/07/07 05:51:59;;;;;;;21.38;9.30;;;;;;;14.03;100.00;101798.97;4997251;28;20088;-70
2023/07/07 05:54:24;;;;;;;22.90;9.40;;;;;;;14.20;100.00;101804.38;5014380;28;20076;-70
2023/07/07 05:56:50;;;;;;;23.05;9.10;;;;;;;14.34;100.00;101800.88;5014439;28;20034;-70
2023/07/07 05:59:15;;;;;;;20.38;9.10;;;;;;;14.44;100.00;101800.03;5014653;28;20038;-70
2023/07/07 06:01:41;;;;;;;22.65;9.70;;;;;;;14.55;100.00;101800.09;5014733;28;20070;-68
2023/07/07 06:04:06;;;;;;;20.67;8.82;;;;;;;14.73;100.00;101800.16;5014825;28;20069;-70
2023/07/07 06:06:31;;;;;;;20.23;9.20;;;;;;;14.79;100.00;101799.28;5014126;28;20477;-69
2023/07/07 06:08:57;;;;;;;20.70;9.10;;;;;;;14.91;100.00;101794.00;5014638;28;20139;-71
2023/07/07 06:11:23;;;;;;;21.52;9.18;;;;;;;15.02;100.00;101793.13;5014461;28;20068;-70
2023/07/07 06:13:48;;;;;;;22.35;8.77;;;;;;;15.13;100.00;101797.56;5014406;28;20072;-71
2023/07/07 06:16:14;;;;;;;21.52;9.10;;;;;;;15.27;100.00;101786.88;5014250;28;20041;-71
2023/07/07 06:18:39;;;;;;;20.27;8.43;;;;;;;15.36;100.00;101795.78;5013949;28;20040;-70
2023/07/07 06:21:05;;;;;;;20.70;8.13;;;;;;;15.50;100.00;101794.88;4996874;28;20026;-67
2023/07/07 06:23:32;;;;;;;19.70;7.80;;;;;;;15.59;100.00;101793.97;5014148;28;20022;-68
2023/07/07 06:25:57;;;;;;;19.77;7.35;;;;;;;15.73;100.00;101782.38;5014066;28;20433;-70
2023/07/07 06:28:24;;;;;;;19.58;7.00;;;;;;;15.85;100.00;101788.63;5014345;28;20508;-64
2023/07/07 06:30:51;;;;;;;20.13;6.68;;;;;;;15.96;100.00;101788.59;5014180;28;20065;-70
2023/07/07 06:33:17;;;;;;;19.23;6.00;;;;;;;16.03;100.00;101789.47;5013989;28;20505;-63
2023/07/07 06:35:43;;;;;;;20.05;5.70;;;;;;;16.17;100.00;101790.28;5013809;28;20507;-68
2023/07/07 06:38:09;;;;;;;18.40;5.60;;;;;;;16.33;100.00;101801.78;5013904;28;20489;-67
2023/07/07 06:40:35;;;;;;;18.65;5.45;;;;;;;16.49;100.00;101799.94;5013846;28;20064;-68
2023/07/07 06:43:04;;;;;;;18.40;5.30;;;;;;;16.54;100.00;101800.81;5015705;28;20022;-65
2023/07/07 06:45:31;;;;;;;17.75;5.40;;;;;;;16.62;100.00;101798.09;5014014;28;20061;-64
2023/07/07 06:47:57;;;;;;;19.02;5.60;;;;;;;16.73;100.00;101801.59;5013615;28;20036;-68
2023/07/07 06:50:30;;;;;;;18.58;5.68;;;;;;;16.81;100.00;101804.22;5013697;28;20117;-66
2023/07/07 06:52:56;;;;;;;17.42;5.22;;;;;;;16.87;100.00;101808.63;5013831;28;20040;-67
2023/07/07 06:55:21;;;;;;;18.15;5.38;;;;;;;16.93;100.00;101810.41;5013173;28;20409;-64
2023/07/07 06:57:47;;;;;;;18.02;5.22;;;;;;;17.00;100.00;101801.44;5013367;28;20096;-66
2023/07/07 07:00:13;;;;;;;17.02;5.20;;;;;;;17.06;100.00;101807.63;5013970;28;20029;-72
2023/07/07 07:02:39;;;;;;;17.58;4.82;;;;;;;17.21;100.00;101816.41;5013929;28;20038;-68
2023/07/07 07:05:05;;;;;;;18.05;5.00;;;;;;;17.30;100.00;101810.13;5012427;28;20104;-70
2023/07/07 07:07:31;;;;;;;18.38;5.00;;;;;;;17.40;100.00;101818.06;5013100;28;20026;-69
2023/07/07 07:09:56;;;;;;;17.88;4.72;;;;;;;17.52;100.00;101808.16;5013250;28;20034;-65
2023/07/07 07:12:22;;;;;;;15.60;4.60;;;;;;;17.62;100.00;101812.53;4995646;28;20060;-64
2023/07/07 07:14:47;;;;;;;17.58;4.97;;;;;;;17.76;100.00;101815.91;5013361;28;20030;-70
2023/07/07 07:17:12;;;;;;;15.43;4.40;;;;;;;17.86;100.00;101813.16;5013186;28;20404;-69
2023/07/07 07:19:38;;;;;;;15.32;4.18;;;;;;;18.09;100.00;101819.16;5012893;28;20034;-61
2023/07/07 07:22:03;;;;;;;16.17;4.45;;;;;;;18.24;100.00;101822.56;5013199;28;20096;-70
2023/07/07 07:24:29;;;;;;;14.18;4.20;;;;;;;18.43;100.00;101816.06;5012675;28;20041;-67
2023/07/07 07:26:54;;;;;;;17.90;4.60;;;;;;;18.52;100.00;101819.53;5013055;28;20162;-70
2023/07/07 07:29:19;;;;;;;16.65;4.10;;;;;;;18.58;100.00;101816.78;5012675;28;20038;-69
2023/07/07 07:31:45;;;;;;;13.93;3.90;;;;;;;18.61;100.00;101822.06;5014622;28;20367;-68
2023/07/07 07:34:29;;;;;;;14.18;4.03;;;;;;;18.71;100.00;101823.75;4995695;28;20045;-69
2023/07/07 07:36:56;;;;;;;14.27;3.92;;;;;;;18.79;100.00;101826.31;5012489;28;20029;-68
2023/07/07 07:39:22;;;;;;;14.02;3.90;;;;;;;18.80;100.00;101812.91;5013062;28;20030;-68
2023/07/07 07:41:49;;;;;;;11.35;3.70;;;;;;;18.96;100.00;101829.66;5013014;28;20495;-66
2023/07/07 07:44:16;;;;;;;14.48;3.85;;;;;;;19.03;100.00;101827.75;5013144;28;20121;-71
2023/07/07 07:46:44;;;;;;;12.80;3.88;;;;;;;19.23;100.00;101822.09;5012979;28;20034;-71
2023/07/07 07:49:09;;;;;;;14.60;3.90;;;;;;;19.34;100.00;101812.06;5012899;28;20461;-71
2023/07/07 07:51:39;;;;;;;15.73;3.90;;;;;;;19.48;100.00;101827.03;4995602;28;20152;-71
2023/07/07 07:54:06;;;;;;;16.48;3.70;;;;;;;19.55;99.67;101817.09;5012910;28;20084;-72
2023/07/07 07:56:32;;;;;;;14.48;3.88;;;;;;;19.62;93.78;101813.41;5012665;28;20041;-71
2023/07/07 07:58:57;;;;;;;12.57;3.58;;;;;;;19.73;92.51;101822.16;5013076;28;20022;-71
2023/07/07 08:01:22;;;;;;;12.95;3.72;;;;;;;19.88;86.80;101820.09;5012730;28;20037;-71
2023/07/07 08:03:48;;;;;;;11.80;3.55;;;;;;;20.01;94.89;101832.38;5013017;28;20080;-72
2023/07/07 08:06:13;;;;;;;13.60;3.70;;;;;;;20.09;89.04;101824.16;5013005;28;20030;-72
2023/07/07 08:08:38;;;;;;;13.30;3.80;;;;;;;20.31;91.12;101821.94;5010311;28;20180;-68
2023/07/07 08:11:04;;;;;;;15.07;3.50;;;;;;;20.47;86.20;101826.03;5016319;28;20058;-69
2023/07/07 08:13:29;;;;;;;14.50;3.70;;;;;;;20.72;83.29;101831.81;5013755;28;20037;-69
2023/07/07 08:15:54;;;;;;;13.82;3.70;;;;;;;20.88;83.71;101835.03;5015409;28;20047;-69
2023/07/07 08:18:20;;;;;;;13.75;3.50;;;;;;;20.99;81.66;101826.72;5012254;28;20033;-69
2023/07/07 08:20:45;;;;;;;13.38;3.55;;;;;;;21.00;75.10;101827.56;5010732;28;20377;-70
2023/07/07 08:23:10;;;;;;;12.02;3.50;;;;;;;21.08;77.71;101825.59;5015849;28;20488;-69
2023/07/07 08:25:36;;;;;;;12.73;3.40;;;;;;;21.31;76.51;101827.72;5012447;28;20108;-70
2023/07/07 08:28:01;;;;;;;12.65;3.42;;;;;;;21.39;70.89;101827.53;5013925;28;20042;-70
2023/07/07 08:30:27;;;;;;;16.65;3.60;;;;;;;21.49;70.93;101828.19;5017807;28;20029;-69
2023/07/07 08:32:53;;;;;;;13.85;3.50;;;;;;;21.63;70.49;101827.88;4997279;28;20156;-71
2023/07/07 08:35:19;;;;;;;12.63;3.42;;;;;;;21.82;70.64;101831.81;5012107;28;20041;-70
2023/07/07 08:37:44;;;;;;;12.63;3.17;;;;;;;21.87;67.42;101834.38;5014282;28;20461;-70
2023/07/07 08:40:16;;;;;;;17.15;3.47;;;;;;;22.02;69.11;101827.69;5017628;28;20037;-70
2023/07/07 08:42:42;;;;;;;12.25;3.42;;;;;;;22.17;70.22;101832.63;5020508;28;20380;-70
2023/07/07 08:45:27;;;;;;;14.60;3.50;;;;;;;22.26;72.50;101832.38;4995695;28;20036;-69
2023/07/07 08:48:14;;;;;;;14.45;3.40;;;;;;;22.43;68.10;101828.34;5011040;28;20054;-70
2023/07/07 08:50:49;;;;;;;9.10;3.03;;;;;;;22.52;61.08;101830.75;5017441;28;20037;-68
2023/07/07 08:53:30;;;;;;;13.82;3.22;;;;;;;22.72;63.77;101832.84;5016748;28;20032;-71
2023/07/07 08:56:34;;;;;;;13.60;3.58;;;;;;;22.91;60.88;101830.44;5015051;28;20083;-70
2023/07/07 08:59:02;;;;;;;11.00;3.10;;;;;;;23.26;57.25;101831.16;4990632;28;20050;-64
2023/07/07 09:01:45;;;;;;;10.25;3.08;;;;;;;23.41;58.25;101827.03;5011839;28;20362;-62
2023/07/07 09:04:20;;;;;;;11.98;3.40;;;;;;;23.41;53.99;101828.88;5013542;28;20029;-68
2023/07/07 09:07:17;;;;;;;9.68;3.20;;;;;;;23.41;54.95;101829.75;5015910;28;20129;-65
2023/07/07 09:10:04;;;;;;;10.10;3.15;;;;;;;23.51;55.21;101824.91;5013030;28;20022;-62
2023/07/07 09:12:38;;;;;;;11.88;3.10;;;;;;;23.63;53.16;101818.22;5012906;28;20034;-69
2023/07/07 09:15:18;;;;;;;11.32;3.28;;;;;;;23.66;55.62;101828.88;5015681;28;20066;-69
2023/07/07 09:17:48;;;;;;;12.65;3.38;;;;;;;23.76;53.34;101824.94;5015651;28;20109;-69
2023/07/07 09:20:15;;;;;;;11.63;3.10;;;;;;;23.98;51.98;101830.50;5015341;28;20466;-69
2023/07/07 09:22:47;;;;;;;13.60;3.22;;;;;;;24.07;51.56;101822.97;5015505;28;20081;-62
2023/07/07 09:25:21;;;;;;;13.65;3.58;;;;;;;24.11;50.17;101824.63;5015722;28;20121;-69
2023/07/07 09:28:08;;;;;;;13.45;3.47;;;;;;;24.33;52.69;101825.59;5015459;28;20057;-62
2023/07/07 09:30:40;;;;;;;13.43;3.63;;;;;;;24.42;52.83;101818.06;5013860;28;20030;-68
2023/07/07 09:33:10;;;;;;;14.45;3.50;;;;;;;24.59;51.32;101826.44;5015290;28;20058;-69
2023/07/07 09:35:41;;;;;;;11.82;3.33;;;;;;;24.74;50.69;101827.63;5015186;28;20061;-68
2023/07/07 09:38:53;;;;;;;14.27;3.40;;;;;;;24.87;50.24;101823.53;5015450;28;20025;-69
2023/07/07 09:41:21;;;;;;;12.10;3.25;;;;;;;25.17;46.92;101816.91;5007437;28;20116;-66
2023/07/07 09:44:01;;;;;;;10.93;3.42;;;;;;;25.30;47.53;101818.16;5015128;28;20058;-69
2023/07/07 09:46:44;;;;;;;12.02;3.55;;;;;;;25.47;49.49;101817.47;5012006;28;20025;-68
2023/07/07 09:49:28;;;;;;;10.93;3.50;;;;;;;25.61;47.48;101806.03;5015064;28;20477;-64
2023/07/07 09:52:31;;;;;;;13.65;3.40;;;;;;;25.81;48.15;101817.81;5014881;28;20503;-62
2023/07/07 09:54:58;;;;;;;11.23;3.15;;;;;;;26.04;44.81;101819.53;5010936;28;20535;-67
2023/07/07 09:57:29;;;;;;;11.07;3.40;;;;;;;26.25;44.77;101806.81;5014791;28;20026;-69
2023/07/07 09:59:58;;;;;;;13.73;3.63;;;;;;;26.11;45.00;101799.34;5011007;28;20030;-69
2023/07/07 10:02:43;;;;;;;9.23;3.10;;;;;;;26.22;44.84;101805.13;5014765;28;20033;-63
2023/07/07 10:05:10;;;;;;;12.48;3.63;;;;;;;26.37;44.99;101810.78;5014825;28;20022;-66
2023/07/07 10:07:39;;;;;;;11.05;3.30;;;;;;;26.69;43.89;101805.69;5014879;28;20037;-64
2023/07/07 10:10:06;;;;;;;13.77;3.30;;;;;;;27.89;42.76;101802.31;5014749;28;20469;-67
2023/07/07 10:12:32;;;;;;;9.65;3.20;;;;;;;29.29;37.88;101798.16;5014402;28;20041;-68
2023/07/07 10:14:58;;;;;;;11.50;3.40;;;;;;;30.49;36.85;101795.28;5014484;28;20022;-69
2023/07/07 10:17:58;;;;;;;12.13;3.38;;;;;;;31.17;35.91;101794.44;5014691;28;20041;-69
2023/07/07 10:20:23;;;;;;;10.98;3.08;;;;;;;31.94;32.70;101794.56;5010995;28;20477;-64
2023/07/07 10:22:48;;;;;;;10.73;3.10;;;;;;;33.36;29.66;101789.59;5014473;28;20096;-68
2023/07/07 10:25:15;;;;;;;12.38;3.20;;;;;;;34.94;29.08;101807.13;5014579;28;20038;-69
2023/07/07 10:27:53;;;;;;;11.93;3.20;;;;;;;35.08;29.05;101803.19;5014140;28;20498;-67
2023/07/07 10:30:20;;;;;;;9.80;2.90;;;;;;;34.45;28.45;101790.09;5014520;28;20034;-66
2023/07/07 10:32:46;;;;;;;9.57;3.10;;;;;;;35.02;27.41;101787.22;5013899;28;20125;-68
2023/07/07 10:35:16;;;;;;;10.13;3.03;;;;;;;35.92;26.73;101789.50;5014108;28;20478;-67
2023/07/07 10:37:42;;;;;;;11.75;3.10;;;;;;;36.38;25.38;101786.38;5014120;28;20116;-70
2023/07/07 10:40:14;;;;;;;10.68;3.40;;;;;;;36.30;25.88;101782.44;5014132;28;20086;-70
2023/07/07 10:42:40;;;;;;;8.52;3.10;;;;;;;36.61;24.57;101784.25;5013862;28;20062;-71
2023/07/07 10:45:06;;;;;;;7.90;3.10;;;;;;;37.05;25.45;101790.31;5013777;28;20034;-71
2023/07/07 10:47:35;;;;;;;11.35;2.97;;;;;;;35.89;24.84;101770.53;5014086;28;20081;-66
2023/07/07 10:50:02;;;;;;;10.73;3.15;;;;;;;34.86;24.89;101787.66;5013851;28;20069;-70
2023/07/07 10:52:46;;;;;;;8.48;3.00;;;;;;;35.72;26.34;101771.13;5004299;28;20091;-71
2023/07/07 10:55:32;;;;;;;9.88;3.13;;;;;;;36.75;26.57;101791.25;5010752;28;20029;-70
2023/07/07 10:58:13;;;;;;;12.90;3.40;;;;;;;37.35;23.31;101768.28;4995499;28;20469;-70
2023/07/07 11:00:53;;;;;;;7.95;3.10;;;;;;;37.62;23.47;101784.03;5010942;28;20029;-71
2023/07/07 11:03:57;;;;;;;9.68;3.20;;;;;;;37.80;23.83;101782.25;5013686;28;20120;-71
2023/07/07 11:06:37;;;;;;;11.43;3.38;;;;;;;37.59;22.91;101776.94;5012447;28;20021;-68
2023/07/07 11:09:14;;;;;;;9.50;3.22;;;;;;;36.34;23.05;101763.78;5004971;28;20088;-71
2023/07/07 11:12:05;;;;;;;10.32;3.33;;;;;;;37.53;22.56;101771.13;5008768;28;20034;-69
2023/07/07 11:14:55;;;;;;;9.73;3.40;;;;;;;38.27;21.53;101774.97;5012228;28;20030;-71
2023/07/07 11:17:44;;;;;;;10.95;3.22;;;;;;;39.64;21.93;101769.28;5011131;28;20034;-67
2023/07/07 11:20:38;;;;;;;11.50;3.13;;;;;;;40.26;22.08;101771.00;5009595;28;20091;-65